sensor_id;sensor_type;location;lat;lon;timestamp;P1;durP1;ratioP1;P2;durP2;ratioP2
35699;SDS011;21818;51.078;12.108;2023-11-21T00:01:01;3.83;;;1.52;;
35699;SDS011;21818;51.078;12.108;2023-11-21T00:03:29;2.08;;;0.80;;
35699;SDS011;21818;51.078;12.108;2023-11-21T00:05:58;3.90;;;0.60;;
35699;SDS011;21818;51.078;12.108;2023-11-21T00:08:23;1.40;;;0.60;;
35699;SDS011;21818;51.078;12.108;2023-11-21T00:10:49;1.98;;;0.60;;
35699;SDS011;21818;51.078;12.108;2023-11-21T00:13:16;5.28;;;0.40;;
35699;SDS011;21818;51.078;12.108;2023-11-21T00:15:41;2.17;;;0.95;;
35699;SDS011;21818;51.078;12.108;2023-11-21T00:18:07;1.15;;;0.63;;
35699;SDS011;21818;51.078;12.108;2023-11-21T00:20:32;1.77;;;0.50;;
35699;SDS011;21818;51.078;12.108;2023-11-21T00:22:58;2.05;;;0.60;;
35699;SDS011;21818;51.078;12.108;2023-11-21T00:25:24;4.78;;;0.40;;
35699;SDS011;21818;51.078;12.108;2023-11-21T00:27:50;2.05;;;0.63;;
35699;SDS011;21818;51.078;12.108;2023-11-21T00:30:15;0.77;;;0.40;;
35699;SDS011;21818;51.078;12.108;2023-11-21T00:32:41;4.38;;;0.43;;
35699;SDS011;21818;51.078;12.108;2023-11-21T00:35:07;2.00;;;0.50;;
35699;SDS011;21818;51.078;12.108;2023-11-21T00:37:33;1.88;;;0.50;;
35699;SDS011;21818;51.078;12.108;2023-11-21T00:39:58;2.25;;;0.52;;
35699;SDS011;21818;51.078;12.108;2023-11-21T00:42:24;2.60;;;0.80;;
35699;SDS011;21818;51.078;12.108;2023-11-21T00:44:50;1.85;;;0.57;;
35699;SDS011;21818;51.078;12.108;2023-11-21T00:47:15;3.25;;;0.50;;
35699;SDS011;21818;51.078;12.108;2023-11-21T00:49:41;2.15;;;0.52;;
35699;SDS011;21818;51.078;12.108;2023-11-21T00:52:07;3.22;;;0.82;;
35699;SDS011;21818;51.078;12.108;2023-11-21T00:54:32;1.77;;;0.65;;
35699;SDS011;21818;51.078;12.108;2023-11-21T00:56:58;2.25;;;0.57;;
35699;SDS011;21818;51.078;12.108;2023-11-21T00:59:24;2.47;;;0.70;;
35699;SDS011;21818;51.078;12.108;2023-11-21T01:01:50;2.72;;;0.68;;
35699;SDS011;21818;51.078;12.108;2023-11-21T01:04:15;2.58;;;0.60;;
35699;SDS011;21818;51.078;12.108;2023-11-21T01:06:41;3.47;;;0.98;;
35699;SDS011;21818;51.078;12.108;2023-11-21T01:09:06;1.35;;;0.70;;
35699;SDS011;21818;51.078;12.108;2023-11-21T01:11:34;3.40;;;0.60;;
35699;SDS011;21818;51.078;12.108;2023-11-21T01:14:02;3.20;;;0.52;;
35699;SDS011;21818;51.078;12.108;2023-11-21T01:16:29;3.55;;;0.95;;
35699;SDS011;21818;51.078;12.108;2023-11-21T01:18:54;2.80;;;0.60;;
35699;SDS011;21818;51.078;12.108;2023-11-21T01:21:20;2.00;;;0.70;;
35699;SDS011;21818;51.078;12.108;2023-11-21T01:23:46;1.55;;;0.70;;
35699;SDS011;21818;51.078;12.108;2023-11-21T01:26:12;3.85;;;0.70;;
35699;SDS011;21818;51.078;12.108;2023-11-21T01:28:38;2.97;;;0.77;;
35699;SDS011;21818;51.078;12.108;2023-11-21T01:31:04;4.70;;;0.65;;
35699;SDS011;21818;51.078;12.108;2023-11-21T01:33:29;3.83;;;0.70;;
35699;SDS011;21818;51.078;12.108;2023-11-21T01:35:55;2.17;;;0.65;;
35699;SDS011;21818;51.078;12.108;2023-11-21T01:38:21;4.05;;;0.50;;
35699;SDS011;21818;51.078;12.108;2023-11-21T01:40:47;1.08;;;0.40;;
35699;SDS011;21818;51.078;12.108;2023-11-21T01:43:13;2.85;;;0.60;;
35699;SDS011;21818;51.078;12.108;2023-11-21T01:45:38;1.10;;;0.40;;
35699;SDS011;21818;51.078;12.108;2023-11-21T01:48:04;6.50;;;0.80;;
35699;SDS011;21818;51.078;12.108;2023-11-21T01:50:31;2.80;;;0.80;;
35699;SDS011;21818;51.078;12.108;2023-11-21T01:52:58;1.65;;;0.70;;
35699;SDS011;21818;51.078;12.108;2023-11-21T01:55:25;2.90;;;0.70;;
35699;SDS011;21818;51.078;12.108;2023-11-21T01:57:52;5.05;;;0.90;;
35699;SDS011;21818;51.078;12.108;2023-11-21T02:00:18;4.53;;;1.30;;
35699;SDS011;21818;51.078;12.108;2023-11-21T02:02:47;4.32;;;0.63;;
35699;SDS011;21818;51.078;12.108;2023-11-21T02:05:17;3.97;;;0.80;;
35699;SDS011;21818;51.078;12.108;2023-11-21T02:07:44;5.00;;;0.70;;
35699;SDS011;21818;51.078;12.108;2023-11-21T02:10:13;2.42;;;0.63;;
35699;SDS011;21818;51.078;12.108;2023-11-21T02:12:42;3.67;;;0.60;;
35699;SDS011;21818;51.078;12.108;2023-11-21T02:15:12;2.13;;;0.60;;
35699;SDS011;21818;51.078;12.108;2023-11-21T02:17:48;1.88;;;0.60;;
35699;SDS011;21818;51.078;12.108;2023-11-21T02:20:19;2.47;;;0.70;;
35699;SDS011;21818;51.078;12.108;2023-11-21T02:25:31;2.50;;;0.60;;
35699;SDS011;21818;51.078;12.108;2023-11-21T02:27:58;2.35;;;0.70;;
35699;SDS011;21818;51.078;12.108;2023-11-21T02:30:26;3.95;;;0.80;;
35699;SDS011;21818;51.078;12.108;2023-11-21T02:32:56;3.78;;;1.08;;
35699;SDS011;21818;51.078;12.108;2023-11-21T02:35:23;3.53;;;1.55;;
35699;SDS011;21818;51.078;12.108;2023-11-21T02:37:50;1.02;;;0.47;;
35699;SDS011;21818;51.078;12.108;2023-11-21T02:40:17;1.95;;;0.70;;
35699;SDS011;21818;51.078;12.108;2023-11-21T02:42:43;2.08;;;0.70;;
35699;SDS011;21818;51.078;12.108;2023-11-21T02:45:09;3.30;;;0.80;;
35699;SDS011;21818;51.078;12.108;2023-11-21T02:47:37;4.85;;;0.88;;
35699;SDS011;21818;51.078;12.108;2023-11-21T02:50:03;2.65;;;0.52;;
35699;SDS011;21818;51.078;12.108;2023-11-21T02:52:31;1.73;;;0.60;;
35699;SDS011;21818;51.078;12.108;2023-11-21T02:54:58;3.70;;;0.60;;
35699;SDS011;21818;51.078;12.108;2023-11-21T02:57:23;4.97;;;0.65;;
35699;SDS011;21818;51.078;12.108;2023-11-21T02:59:49;3.60;;;0.63;;
35699;SDS011;21818;51.078;12.108;2023-11-21T03:02:15;1.77;;;0.65;;
35699;SDS011;21818;51.078;12.108;2023-11-21T03:04:41;1.75;;;0.60;;
35699;SDS011;21818;51.078;12.108;2023-11-21T03:07:07;7.03;;;1.17;;
35699;SDS011;21818;51.078;12.108;2023-11-21T03:09:34;2.05;;;0.80;;
35699;SDS011;21818;51.078;12.108;2023-11-21T03:12:00;4.13;;;0.80;;
35699;SDS011;21818;51.078;12.108;2023-11-21T03:14:25;6.20;;;1.13;;
35699;SDS011;21818;51.078;12.108;2023-11-21T03:16:51;2.60;;;0.70;;
35699;SDS011;21818;51.078;12.108;2023-11-21T03:19:16;2.85;;;0.80;;
35699;SDS011;21818;51.078;12.108;2023-11-21T03:21:42;3.25;;;0.95;;
35699;SDS011;21818;51.078;12.108;2023-11-21T03:24:08;1.95;;;0.65;;
35699;SDS011;21818;51.078;12.108;2023-11-21T03:26:33;2.60;;;0.90;;
35699;SDS011;21818;51.078;12.108;2023-11-21T03:28:59;1.15;;;0.47;;
35699;SDS011;21818;51.078;12.108;2023-11-21T03:31:25;2.42;;;0.60;;
35699;SDS011;21818;51.078;12.108;2023-11-21T03:33:51;1.13;;;0.55;;
35699;SDS011;21818;51.078;12.108;2023-11-21T03:36:18;4.28;;;0.80;;
35699;SDS011;21818;51.078;12.108;2023-11-21T03:38:44;2.88;;;0.63;;
35699;SDS011;21818;51.078;12.108;2023-11-21T03:41:10;2.35;;;0.57;;
35699;SDS011;21818;51.078;12.108;2023-11-21T03:43:36;5.03;;;0.77;;
35699;SDS011;21818;51.078;12.108;2023-11-21T03:46:02;3.00;;;0.80;;
35699;SDS011;21818;51.078;12.108;2023-11-21T03:48:28;2.20;;;0.60;;
35699;SDS011;21818;51.078;12.108;2023-11-21T03:50:54;2.75;;;1.00;;
35699;SDS011;21818;51.078;12.108;2023-11-21T03:53:20;3.35;;;1.10;;
35699;SDS011;21818;51.078;12.108;2023-11-21T03:55:45;4.63;;;1.15;;
35699;SDS011;21818;51.078;12.108;2023-11-21T03:58:11;2.13;;;0.75;;
35699;SDS011;21818;51.078;12.108;2023-11-21T04:00:37;3.50;;;0.88;;
35699;SDS011;21818;51.078;12.108;2023-11-21T04:03:03;3.53;;;0.70;;
35699;SDS011;21818;51.078;12.108;2023-11-21T04:05:28;4.18;;;0.90;;
35699;SDS011;21818;51.078;12.108;2023-11-21T04:07:54;6.35;;;1.25;;
35699;SDS011;21818;51.078;12.108;2023-11-21T04:10:20;1.98;;;0.98;;
35699;SDS011;21818;51.078;12.108;2023-11-21T04:12:45;2.28;;;0.73;;
35699;SDS011;21818;51.078;12.108;2023-11-21T04:15:11;3.65;;;1.00;;
35699;SDS011;21818;51.078;12.108;2023-11-21T04:17:40;4.93;;;0.90;;
35699;SDS011;21818;51.078;12.108;2023-11-21T04:20:06;3.10;;;0.73;;
35699;SDS011;21818;51.078;12.108;2023-11-21T04:22:40;5.43;;;0.95;;
35699;SDS011;21818;51.078;12.108;2023-11-21T04:25:09;4.03;;;0.90;;
35699;SDS011;21818;51.078;12.108;2023-11-21T04:27:39;3.00;;;0.77;;
35699;SDS011;21818;51.078;12.108;2023-11-21T04:30:05;4.50;;;0.90;;
35699;SDS011;21818;51.078;12.108;2023-11-21T04:32:32;1.77;;;0.70;;
35699;SDS011;21818;51.078;12.108;2023-11-21T04:34:58;3.17;;;1.13;;
35699;SDS011;21818;51.078;12.108;2023-11-21T04:37:24;2.25;;;0.60;;
35699;SDS011;21818;51.078;12.108;2023-11-21T04:39:49;4.95;;;1.27;;
35699;SDS011;21818;51.078;12.108;2023-11-21T04:42:15;3.25;;;0.80;;
35699;SDS011;21818;51.078;12.108;2023-11-21T04:44:41;2.40;;;1.52;;
35699;SDS011;21818;51.078;12.108;2023-11-21T04:47:06;2.42;;;1.20;;
35699;SDS011;21818;51.078;12.108;2023-11-21T04:49:32;2.40;;;0.95;;
35699;SDS011;21818;51.078;12.108;2023-11-21T04:51:58;4.15;;;1.00;;
35699;SDS011;21818;51.078;12.108;2023-11-21T04:54:24;2.63;;;0.77;;
35699;SDS011;21818;51.078;12.108;2023-11-21T04:56:50;3.10;;;0.80;;
35699;SDS011;21818;51.078;12.108;2023-11-21T04:59:15;2.03;;;1.00;;
35699;SDS011;21818;51.078;12.108;2023-11-21T05:01:41;6.15;;;1.23;;
35699;SDS011;21818;51.078;12.108;2023-11-21T05:04:07;4.63;;;1.02;;
35699;SDS011;21818;51.078;12.108;2023-11-21T05:06:33;2.65;;;1.10;;
35699;SDS011;21818;51.078;12.108;2023-11-21T05:08:59;2.85;;;1.00;;
35699;SDS011;21818;51.078;12.108;2023-11-21T05:11:25;2.97;;;1.40;;
35699;SDS011;21818;51.078;12.108;2023-11-21T05:13:51;7.38;;;1.50;;
35699;SDS011;21818;51.078;12.108;2023-11-21T05:16:18;4.22;;;1.35;;
35699;SDS011;21818;51.078;12.108;2023-11-21T05:18:44;5.43;;;1.20;;
35699;SDS011;21818;51.078;12.108;2023-11-21T05:21:10;4.93;;;1.17;;
35699;SDS011;21818;51.078;12.108;2023-11-21T05:23:36;5.38;;;1.25;;
35699;SDS011;21818;51.078;12.108;2023-11-21T05:26:02;5.00;;;1.48;;
35699;SDS011;21818;51.078;12.108;2023-11-21T05:28:28;5.30;;;2.35;;
35699;SDS011;21818;51.078;12.108;2023-11-21T05:30:54;3.05;;;1.00;;
35699;SDS011;21818;51.078;12.108;2023-11-21T05:33:20;2.92;;;1.02;;
35699;SDS011;21818;51.078;12.108;2023-11-21T05:35:45;6.10;;;1.33;;
35699;SDS011;21818;51.078;12.108;2023-11-21T05:38:13;4.20;;;1.45;;
35699;SDS011;21818;51.078;12.108;2023-11-21T05:40:39;3.42;;;1.15;;
35699;SDS011;21818;51.078;12.108;2023-11-21T05:43:05;5.90;;;1.50;;
35699;SDS011;21818;51.078;12.108;2023-11-21T05:45:31;4.30;;;1.55;;
35699;SDS011;21818;51.078;12.108;2023-11-21T05:47:58;3.10;;;1.20;;
35699;SDS011;21818;51.078;12.108;2023-11-21T05:50:24;2.88;;;0.95;;
35699;SDS011;21818;51.078;12.108;2023-11-21T05:52:49;4.43;;;1.30;;
35699;SDS011;21818;51.078;12.108;2023-11-21T05:55:15;4.10;;;1.40;;
35699;SDS011;21818;51.078;12.108;2023-11-21T05:57:42;3.78;;;1.25;;
35699;SDS011;21818;51.078;12.108;2023-11-21T06:00:09;3.33;;;1.65;;
35699;SDS011;21818;51.078;12.108;2023-11-21T06:02:38;5.50;;;1.60;;
35699;SDS011;21818;51.078;12.108;2023-11-21T06:05:04;3.15;;;1.30;;
35699;SDS011;21818;51.078;12.108;2023-11-21T06:07:31;3.05;;;1.17;;
35699;SDS011;21818;51.078;12.108;2023-11-21T06:09:57;4.32;;;1.50;;
35699;SDS011;21818;51.078;12.108;2023-11-21T06:12:22;8.80;;;1.88;;
35699;SDS011;21818;51.078;12.108;2023-11-21T06:14:48;3.60;;;1.30;;
35699;SDS011;21818;51.078;12.108;2023-11-21T06:17:13;5.90;;;2.25;;
35699;SDS011;21818;51.078;12.108;2023-11-21T06:19:39;5.20;;;1.30;;
35699;SDS011;21818;51.078;12.108;2023-11-21T06:22:05;4.28;;;1.55;;
35699;SDS011;21818;51.078;12.108;2023-11-21T06:24:31;4.57;;;1.50;;
35699;SDS011;21818;51.078;12.108;2023-11-21T06:26:56;4.00;;;1.52;;
35699;SDS011;21818;51.078;12.108;2023-11-21T06:29:22;3.08;;;1.55;;
35699;SDS011;21818;51.078;12.108;2023-11-21T06:31:48;3.13;;;1.83;;
35699;SDS011;21818;51.078;12.108;2023-11-21T06:34:14;4.45;;;1.45;;
35699;SDS011;21818;51.078;12.108;2023-11-21T06:36:39;5.85;;;1.30;;
35699;SDS011;21818;51.078;12.108;2023-11-21T06:39:05;7.25;;;1.27;;
35699;SDS011;21818;51.078;12.108;2023-11-21T06:41:32;3.17;;;0.80;;
35699;SDS011;21818;51.078;12.108;2023-11-21T06:43:58;2.83;;;0.82;;
35699;SDS011;21818;51.078;12.108;2023-11-21T06:46:24;4.13;;;0.95;;
35699;SDS011;21818;51.078;12.108;2023-11-21T06:48:50;4.93;;;1.13;;
35699;SDS011;21818;51.078;12.108;2023-11-21T06:51:15;2.70;;;0.80;;
35699;SDS011;21818;51.078;12.108;2023-11-21T06:53:41;5.20;;;0.93;;
35699;SDS011;21818;51.078;12.108;2023-11-21T06:56:19;5.80;;;1.20;;
35699;SDS011;21818;51.078;12.108;2023-11-21T06:58:45;3.30;;;0.80;;
35699;SDS011;21818;51.078;12.108;2023-11-21T07:01:12;3.42;;;0.90;;
35699;SDS011;21818;51.078;12.108;2023-11-21T07:03:38;3.53;;;0.77;;
35699;SDS011;21818;51.078;12.108;2023-11-21T07:06:04;4.43;;;0.70;;
35699;SDS011;21818;51.078;12.108;2023-11-21T07:08:30;3.10;;;0.70;;
35699;SDS011;21818;51.078;12.108;2023-11-21T07:10:56;3.85;;;0.75;;
35699;SDS011;21818;51.078;12.108;2023-11-21T07:13:22;2.60;;;0.65;;
35699;SDS011;21818;51.078;12.108;2023-11-21T07:15:48;2.95;;;0.73;;
35699;SDS011;21818;51.078;12.108;2023-11-21T07:18:14;4.82;;;1.23;;
35699;SDS011;21818;51.078;12.108;2023-11-21T07:20:40;3.42;;;0.77;;
35699;SDS011;21818;51.078;12.108;2023-11-21T07:23:05;1.75;;;1.17;;
35699;SDS011;21818;51.078;12.108;2023-11-21T07:25:31;3.00;;;1.05;;
35699;SDS011;21818;51.078;12.108;2023-11-21T07:27:58;2.42;;;0.75;;
35699;SDS011;21818;51.078;12.108;2023-11-21T07:30:24;3.10;;;0.75;;
35699;SDS011;21818;51.078;12.108;2023-11-21T07:32:50;2.33;;;0.65;;
35699;SDS011;21818;51.078;12.108;2023-11-21T07:35:15;3.55;;;0.88;;
35699;SDS011;21818;51.078;12.108;2023-11-21T07:37:41;1.25;;;0.50;;
35699;SDS011;21818;51.078;12.108;2023-11-21T07:40:08;6.25;;;1.38;;
35699;SDS011;21818;51.078;12.108;2023-11-21T07:42:34;3.22;;;0.80;;
35699;SDS011;21818;51.078;12.108;2023-11-21T07:45:00;2.60;;;1.02;;
35699;SDS011;21818;51.078;12.108;2023-11-21T07:47:25;5.22;;;0.90;;
35699;SDS011;21818;51.078;12.108;2023-11-21T07:49:52;3.97;;;1.00;;
35699;SDS011;21818;51.078;12.108;2023-11-21T07:52:18;2.05;;;0.82;;
35699;SDS011;21818;51.078;12.108;2023-11-21T07:54:46;1.90;;;1.30;;
35699;SDS011;21818;51.078;12.108;2023-11-21T07:57:11;1.77;;;0.95;;
35699;SDS011;21818;51.078;12.108;2023-11-21T07:59:38;3.78;;;1.20;;
35699;SDS011;21818;51.078;12.108;2023-11-21T08:02:06;3.35;;;0.90;;
35699;SDS011;21818;51.078;12.108;2023-11-21T08:04:32;3.35;;;1.05;;
35699;SDS011;21818;51.078;12.108;2023-11-21T08:06:57;2.80;;;0.80;;
35699;SDS011;21818;51.078;12.108;2023-11-21T08:09:23;2.15;;;0.98;;
35699;SDS011;21818;51.078;12.108;2023-11-21T08:11:49;4.03;;;0.93;;
35699;SDS011;21818;51.078;12.108;2023-11-21T08:14:14;3.42;;;0.98;;
35699;SDS011;21818;51.078;12.108;2023-11-21T08:16:40;3.15;;;1.05;;
35699;SDS011;21818;51.078;12.108;2023-11-21T08:19:06;4.68;;;1.13;;
35699;SDS011;21818;51.078;12.108;2023-11-21T08:21:33;13.30;;;3.88;;
35699;SDS011;21818;51.078;12.108;2023-11-21T08:23:59;7.65;;;2.80;;
35699;SDS011;21818;51.078;12.108;2023-11-21T08:26:25;10.57;;;2.75;;
35699;SDS011;21818;51.078;12.108;2023-11-21T08:28:51;10.88;;;3.00;;
35699;SDS011;21818;51.078;12.108;2023-11-21T08:31:27;10.35;;;2.42;;
35699;SDS011;21818;51.078;12.108;2023-11-21T08:33:54;11.77;;;2.92;;
35699;SDS011;21818;51.078;12.108;2023-11-21T08:36:20;13.23;;;2.80;;
35699;SDS011;21818;51.078;12.108;2023-11-21T08:38:48;6.32;;;2.83;;
35699;SDS011;21818;51.078;12.108;2023-11-21T08:41:14;9.38;;;2.90;;
35699;SDS011;21818;51.078;12.108;2023-11-21T08:43:40;7.05;;;2.65;;
35699;SDS011;21818;51.078;12.108;2023-11-21T08:46:07;7.85;;;2.40;;
35699;SDS011;21818;51.078;12.108;2023-11-21T08:48:34;10.35;;;2.58;;
35699;SDS011;21818;51.078;12.108;2023-11-21T08:51:01;7.72;;;2.30;;
35699;SDS011;21818;51.078;12.108;2023-11-21T08:53:27;11.57;;;2.67;;
35699;SDS011;21818;51.078;12.108;2023-11-21T08:55:53;7.82;;;2.55;;
35699;SDS011;21818;51.078;12.108;2023-11-21T08:58:19;6.95;;;2.60;;
35699;SDS011;21818;51.078;12.108;2023-11-21T09:00:44;7.65;;;3.25;;
35699;SDS011;21818;51.078;12.108;2023-11-21T09:03:11;5.40;;;2.35;;
35699;SDS011;21818;51.078;12.108;2023-11-21T09:05:38;7.55;;;2.42;;
35699;SDS011;21818;51.078;12.108;2023-11-21T09:08:04;7.38;;;2.25;;
35699;SDS011;21818;51.078;12.108;2023-11-21T09:10:30;9.88;;;2.47;;
35699;SDS011;21818;51.078;12.108;2023-11-21T09:12:57;5.95;;;2.03;;
35699;SDS011;21818;51.078;12.108;2023-11-21T09:15:24;8.93;;;3.03;;
35699;SDS011;21818;51.078;12.108;2023-11-21T09:17:50;7.55;;;2.70;;
35699;SDS011;21818;51.078;12.108;2023-11-21T09:20:15;7.15;;;2.53;;
35699;SDS011;21818;51.078;12.108;2023-11-21T09:22:41;5.78;;;2.60;;
35699;SDS011;21818;51.078;12.108;2023-11-21T09:25:07;7.05;;;2.90;;
35699;SDS011;21818;51.078;12.108;2023-11-21T09:27:33;6.47;;;3.28;;
35699;SDS011;21818;51.078;12.108;2023-11-21T09:30:00;8.15;;;2.88;;
35699;SDS011;21818;51.078;12.108;2023-11-21T09:32:26;8.70;;;3.42;;
35699;SDS011;21818;51.078;12.108;2023-11-21T09:34:52;12.38;;;3.10;;
35699;SDS011;21818;51.078;12.108;2023-11-21T09:37:20;6.47;;;2.72;;
35699;SDS011;21818;51.078;12.108;2023-11-21T09:39:46;6.43;;;2.80;;
35699;SDS011;21818;51.078;12.108;2023-11-21T09:42:13;5.32;;;2.90;;
35699;SDS011;21818;51.078;12.108;2023-11-21T09:44:58;6.28;;;3.30;;
35699;SDS011;21818;51.078;12.108;2023-11-21T09:47:26;12.30;;;2.80;;
35699;SDS011;21818;51.078;12.108;2023-11-21T09:49:53;8.07;;;3.60;;
35699;SDS011;21818;51.078;12.108;2023-11-21T09:52:25;5.60;;;2.40;;
35699;SDS011;21818;51.078;12.108;2023-11-21T09:54:55;5.83;;;2.70;;
35699;SDS011;21818;51.078;12.108;2023-11-21T09:57:23;9.43;;;2.70;;
35699;SDS011;21818;51.078;12.108;2023-11-21T09:59:53;6.32;;;2.10;;
35699;SDS011;21818;51.078;12.108;2023-11-21T10:02:27;6.93;;;2.42;;
35699;SDS011;21818;51.078;12.108;2023-11-21T10:04:55;6.95;;;2.55;;
35699;SDS011;21818;51.078;12.108;2023-11-21T10:07:21;9.18;;;3.15;;
35699;SDS011;21818;51.078;12.108;2023-11-21T10:09:48;5.55;;;2.20;;
35699;SDS011;21818;51.078;12.108;2023-11-21T10:12:15;5.90;;;2.05;;
35699;SDS011;21818;51.078;12.108;2023-11-21T10:14:42;5.47;;;2.88;;
35699;SDS011;21818;51.078;12.108;2023-11-21T10:17:10;4.78;;;2.20;;
35699;SDS011;21818;51.078;12.108;2023-11-21T10:19:38;5.97;;;2.40;;
35699;SDS011;21818;51.078;12.108;2023-11-21T10:22:04;6.15;;;2.50;;
35699;SDS011;21818;51.078;12.108;2023-11-21T10:24:32;9.23;;;2.58;;
35699;SDS011;21818;51.078;12.108;2023-11-21T10:26:58;8.20;;;2.33;;
35699;SDS011;21818;51.078;12.108;2023-11-21T10:29:24;6.13;;;1.92;;
35699;SDS011;21818;51.078;12.108;2023-11-21T10:31:51;6.40;;;1.98;;
35699;SDS011;21818;51.078;12.108;2023-11-21T10:34:20;8.30;;;2.58;;
35699;SDS011;21818;51.078;12.108;2023-11-21T10:36:46;5.78;;;2.15;;
35699;SDS011;21818;51.078;12.108;2023-11-21T10:39:30;5.15;;;2.13;;
35699;SDS011;21818;51.078;12.108;2023-11-21T10:41:57;6.15;;;1.67;;
35699;SDS011;21818;51.078;12.108;2023-11-21T10:44:24;5.13;;;1.63;;
35699;SDS011;21818;51.078;12.108;2023-11-21T10:46:51;4.90;;;1.92;;
35699;SDS011;21818;51.078;12.108;2023-11-21T10:49:26;4.90;;;1.35;;
35699;SDS011;21818;51.078;12.108;2023-11-21T10:51:52;4.18;;;1.77;;
35699;SDS011;21818;51.078;12.108;2023-11-21T10:54:22;4.88;;;2.10;;
35699;SDS011;21818;51.078;12.108;2023-11-21T10:56:50;3.38;;;1.60;;
35699;SDS011;21818;51.078;12.108;2023-11-21T10:59:22;4.15;;;1.60;;
35699;SDS011;21818;51.078;12.108;2023-11-21T11:01:50;5.70;;;1.98;;
35699;SDS011;21818;51.078;12.108;2023-11-21T11:04:20;4.90;;;2.28;;
35699;SDS011;21818;51.078;12.108;2023-11-21T11:06:51;6.77;;;2.33;;
35699;SDS011;21818;51.078;12.108;2023-11-21T11:09:21;4.40;;;1.63;;
35699;SDS011;21818;51.078;12.108;2023-11-21T11:11:47;7.45;;;1.75;;
35699;SDS011;21818;51.078;12.108;2023-11-21T11:14:14;3.33;;;1.95;;
35699;SDS011;21818;51.078;12.108;2023-11-21T11:16:40;5.95;;;1.80;;
35699;SDS011;21818;51.078;12.108;2023-11-21T11:19:06;3.40;;;1.75;;
35699;SDS011;21818;51.078;12.108;2023-11-21T11:32:56;3.88;;;1.75;;
35699;SDS011;21818;51.078;12.108;2023-11-21T11:35:41;5.13;;;1.77;;
35699;SDS011;21818;51.078;12.108;2023-11-21T11:38:13;3.67;;;1.80;;
35699;SDS011;21818;51.078;12.108;2023-11-21T11:40:44;4.85;;;1.50;;
35699;SDS011;21818;51.078;12.108;2023-11-21T11:43:11;8.10;;;1.88;;
35699;SDS011;21818;51.078;12.108;2023-11-21T11:45:37;3.00;;;1.42;;
35699;SDS011;21818;51.078;12.108;2023-11-21T11:48:16;2.60;;;1.70;;
35699;SDS011;21818;51.078;12.108;2023-11-21T11:51:00;5.53;;;2.08;;
35699;SDS011;21818;51.078;12.108;2023-11-21T11:53:28;4.07;;;1.58;;
35699;SDS011;21818;51.078;12.108;2023-11-21T11:58:57;4.13;;;1.40;;
35699;SDS011;21818;51.078;12.108;2023-11-21T12:01:25;3.70;;;1.50;;
35699;SDS011;21818;51.078;12.108;2023-11-21T12:06:39;4.00;;;1.70;;
35699;SDS011;21818;51.078;12.108;2023-11-21T12:09:06;3.38;;;1.60;;
35699;SDS011;21818;51.078;12.108;2023-11-21T12:11:32;6.38;;;1.50;;
35699;SDS011;21818;51.078;12.108;2023-11-21T12:14:00;4.28;;;1.58;;
35699;SDS011;21818;51.078;12.108;2023-11-21T12:16:27;3.85;;;1.80;;
35699;SDS011;21818;51.078;12.108;2023-11-21T12:18:53;3.35;;;1.60;;
35699;SDS011;21818;51.078;12.108;2023-11-21T12:21:19;3.38;;;1.38;;
35699;SDS011;21818;51.078;12.108;2023-11-21T12:23:46;3.08;;;1.30;;
35699;SDS011;21818;51.078;12.108;2023-11-21T12:26:12;5.53;;;1.83;;
35699;SDS011;21818;51.078;12.108;2023-11-21T12:28:38;3.30;;;1.30;;
35699;SDS011;21818;51.078;12.108;2023-11-21T12:31:05;3.17;;;1.13;;
35699;SDS011;21818;51.078;12.108;2023-11-21T12:33:34;6.20;;;1.70;;
35699;SDS011;21818;51.078;12.108;2023-11-21T12:36:00;3.13;;;1.35;;
35699;SDS011;21818;51.078;12.108;2023-11-21T12:38:33;3.10;;;1.25;;
35699;SDS011;21818;51.078;12.108;2023-11-21T12:41:02;4.22;;;1.67;;
35699;SDS011;21818;51.078;12.108;2023-11-21T12:43:28;3.67;;;1.95;;
35699;SDS011;21818;51.078;12.108;2023-11-21T12:46:04;7.05;;;1.85;;
35699;SDS011;21818;51.078;12.108;2023-11-21T12:48:38;4.20;;;1.88;;
35699;SDS011;21818;51.078;12.108;2023-11-21T12:51:11;2.25;;;1.20;;
35699;SDS011;21818;51.078;12.108;2023-11-21T12:53:37;2.85;;;1.30;;
35699;SDS011;21818;51.078;12.108;2023-11-21T12:56:07;4.35;;;1.50;;
35699;SDS011;21818;51.078;12.108;2023-11-21T12:58:37;2.97;;;1.80;;
35699;SDS011;21818;51.078;12.108;2023-11-21T13:01:07;2.63;;;1.40;;
35699;SDS011;21818;51.078;12.108;2023-11-21T13:03:39;2.97;;;1.75;;
35699;SDS011;21818;51.078;12.108;2023-11-21T13:06:06;4.65;;;1.55;;
35699;SDS011;21818;51.078;12.108;2023-11-21T13:08:33;4.47;;;1.55;;
35699;SDS011;21818;51.078;12.108;2023-11-21T13:10:58;4.38;;;1.70;;
35699;SDS011;21818;51.078;12.108;2023-11-21T13:13:26;2.75;;;1.52;;
35699;SDS011;21818;51.078;12.108;2023-11-21T13:15:54;2.30;;;1.45;;
35699;SDS011;21818;51.078;12.108;2023-11-21T13:18:21;3.67;;;1.55;;
35699;SDS011;21818;51.078;12.108;2023-11-21T13:20:52;3.28;;;1.40;;
35699;SDS011;21818;51.078;12.108;2023-11-21T13:23:21;2.65;;;1.50;;
35699;SDS011;21818;51.078;12.108;2023-11-21T13:25:48;3.13;;;1.83;;
35699;SDS011;21818;51.078;12.108;2023-11-21T13:28:14;3.38;;;1.27;;
35699;SDS011;21818;51.078;12.108;2023-11-21T13:30:45;3.13;;;1.33;;
35699;SDS011;21818;51.078;12.108;2023-11-21T13:33:13;4.20;;;1.40;;
35699;SDS011;21818;51.078;12.108;2023-11-21T13:35:43;3.67;;;1.40;;
35699;SDS011;21818;51.078;12.108;2023-11-21T13:38:15;4.95;;;1.60;;
35699;SDS011;21818;51.078;12.108;2023-11-21T13:40:42;2.35;;;1.30;;
35699;SDS011;21818;51.078;12.108;2023-11-21T13:43:14;2.83;;;1.65;;
35699;SDS011;21818;51.078;12.108;2023-11-21T13:45:45;3.65;;;1.30;;
35699;SDS011;21818;51.078;12.108;2023-11-21T13:48:12;1.83;;;1.23;;
35699;SDS011;21818;51.078;12.108;2023-11-21T13:50:47;3.75;;;1.50;;
35699;SDS011;21818;51.078;12.108;2023-11-21T13:53:33;2.47;;;1.30;;
35699;SDS011;21818;51.078;12.108;2023-11-21T13:56:02;3.97;;;1.45;;
35699;SDS011;21818;51.078;12.108;2023-11-21T13:58:28;2.20;;;1.15;;
35699;SDS011;21818;51.078;12.108;2023-11-21T14:01:09;2.55;;;1.27;;
35699;SDS011;21818;51.078;12.108;2023-11-21T14:03:56;3.15;;;1.20;;
35699;SDS011;21818;51.078;12.108;2023-11-21T14:06:27;2.20;;;1.33;;
35699;SDS011;21818;51.078;12.108;2023-11-21T14:08:59;2.08;;;1.27;;
35699;SDS011;21818;51.078;12.108;2023-11-21T14:11:31;2.97;;;1.38;;
35699;SDS011;21818;51.078;12.108;2023-11-21T14:14:00;2.45;;;1.35;;
35699;SDS011;21818;51.078;12.108;2023-11-21T14:16:27;2.90;;;1.35;;
35699;SDS011;21818;51.078;12.108;2023-11-21T14:18:52;3.00;;;1.17;;
35699;SDS011;21818;51.078;12.108;2023-11-21T14:21:23;2.75;;;1.50;;
35699;SDS011;21818;51.078;12.108;2023-11-21T14:23:49;3.03;;;1.17;;
35699;SDS011;21818;51.078;12.108;2023-11-21T14:26:15;2.10;;;1.38;;
35699;SDS011;21818;51.078;12.108;2023-11-21T14:28:41;5.43;;;1.27;;
35699;SDS011;21818;51.078;12.108;2023-11-21T14:31:08;3.30;;;1.45;;
35699;SDS011;21818;51.078;12.108;2023-11-21T14:33:40;2.20;;;1.40;;
35699;SDS011;21818;51.078;12.108;2023-11-21T14:36:06;2.60;;;1.55;;
35699;SDS011;21818;51.078;12.108;2023-11-21T14:38:38;2.08;;;1.20;;
35699;SDS011;21818;51.078;12.108;2023-11-21T14:41:04;2.45;;;1.35;;
35699;SDS011;21818;51.078;12.108;2023-11-21T14:43:33;3.05;;;1.10;;
35699;SDS011;21818;51.078;12.108;2023-11-21T14:46:00;1.52;;;1.00;;
35699;SDS011;21818;51.078;12.108;2023-11-21T14:48:33;2.22;;;1.33;;
35699;SDS011;21818;51.078;12.108;2023-11-21T14:51:10;4.80;;;1.65;;
35699;SDS011;21818;51.078;12.108;2023-11-21T14:53:36;4.95;;;1.13;;